^^
Station Historical Data
Daily Summary for February 4, 2017 Units:  Both    English   Metric
« Previous Day
Next Day »
Daily Weekly Monthly Yearly Custom
  High: Low: Average:
Temperature: 87.1 °F /  30.6 °C 63.3 °F /  17.4 °C 73.4 °F /  23 °C
Dew Point: 59.9 °F /  15.5 °C 34.7 °F /  1.5 °C 50.3 °F /  10.2 °C
Humidity: 80% 23% 47%
Wind Speed: 12.1mph /  19.5km/h - 1.9mph /  3.1km/h
Wind Gust: 15.0mph /  24.1km/h - -
Wind- - SW
Pressure: 29.74 in /  1007 hPa 29.58 in /  1001.6 hPa -
Precipitation: 0.00 in /  0 mm    
Historical Graphs
 
 
Tabular Data for February 4, 2017
Time Temperature Dew Point Pressure Wind Wind Speed Wind Gust Humidity Rainfall Rate (Hourly) solar Conditions
00:00 66.7 °F /  19.3 °C 59.4 °F /  15.2 °C 29.74in /  1007hPa SW 0.9mph /  1.4km/h 2.0mph /  3.2km/h 77% 0.00in /  0mm 0.0 W/m2
00:08 66.6 °F /  19.2 °C 59.5 °F /  15.3 °C 29.74in /  1007hPa Calm   2.0mph /  3.2km/h 78% 0.00in /  0mm 0.0 W/m2
00:14 66.4 °F /  19.1 °C 59.4 °F /  15.2 °C 29.74in /  1007hPa Calm   1.0mph /  1.6km/h 78% 0.00in /  0mm 0.0 W/m2
00:20 66.4 °F /  19.1 °C 59.4 °F /  15.2 °C 29.74in /  1007hPa Calm   1.0mph /  1.6km/h 78% 0.00in /  0mm 0.0 W/m2
00:26 66.2 °F /  19 °C 59.2 °F /  15.1 °C 29.74in /  1007hPa Calm     78% 0.00in /  0mm 0.0 W/m2
00:32 66.2 °F /  19 °C 59.9 °F /  15.5 °C 29.74in /  1007hPa Calm   3.0mph /  4.8km/h 80% 0.00in /  0mm 0.0 W/m2
00:38 66.2 °F /  19 °C 59.9 °F /  15.5 °C 29.73in /  1006.7hPa Calm   3.0mph /  4.8km/h 80% 0.00in /  0mm 0.0 W/m2
00:44 66.0 °F /  18.9 °C 59.4 °F /  15.2 °C 29.73in /  1006.7hPa Calm     79% 0.00in /  0mm 0.0 W/m2
00:50 66.0 °F /  18.9 °C 59.0 °F /  15 °C 29.73in /  1006.7hPa Calm   1.0mph /  1.6km/h 78% 0.00in /  0mm 0.0 W/m2
00:56 66.0 °F /  18.9 °C 59.4 °F /  15.2 °C 29.73in /  1006.7hPa Calm   1.0mph /  1.6km/h 79% 0.00in /  0mm 0.0 W/m2
01:02 66.0 °F /  18.9 °C 59.0 °F /  15 °C 29.72in /  1006.3hPa Calm   2.0mph /  3.2km/h 78% 0.00in /  0mm 0.0 W/m2
01:08 66.2 °F /  19 °C 59.2 °F /  15.1 °C 29.72in /  1006.3hPa Calm   3.0mph /  4.8km/h 78% 0.00in /  0mm 0.0 W/m2
01:14 66.2 °F /  19 °C 59.5 °F /  15.3 °C 29.72in /  1006.3hPa Calm     79% 0.00in /  0mm 0.0 W/m2
01:20 66.4 °F /  19.1 °C 59.4 °F /  15.2 °C 29.72in /  1006.3hPa SW 0.9mph /  1.4km/h 3.0mph /  4.8km/h 78% 0.00in /  0mm 0.0 W/m2
01:26 66.4 °F /  19.1 °C 59.4 °F /  15.2 °C 29.71in /  1006hPa SSW 0.9mph /  1.4km/h 4.0mph /  6.4km/h 78% 0.00in /  0mm 0.0 W/m2
01:32 66.4 °F /  19.1 °C 59.4 °F /  15.2 °C 29.71in /  1006hPa Calm   1.0mph /  1.6km/h 78% 0.00in /  0mm 0.0 W/m2
01:38 66.4 °F /  19.1 °C 59.7 °F /  15.4 °C 29.71in /  1006hPa Calm     79% 0.00in /  0mm 0.0 W/m2
01:44 66.4 °F /  19.1 °C 59.7 °F /  15.4 °C 29.71in /  1006hPa Calm     79% 0.00in /  0mm 0.0 W/m2
01:50 66.4 °F /  19.1 °C 59.7 °F /  15.4 °C 29.71in /  1006hPa Calm   1.0mph /  1.6km/h 79% 0.00in /  0mm 0.0 W/m2
01:56 66.2 °F /  19 °C 58.8 °F /  14.9 °C 29.70in /  1005.6hPa Calm   3.0mph /  4.8km/h 77% 0.00in /  0mm 0.0 W/m2
02:02 66.4 °F /  19.1 °C 58.6 °F /  14.8 °C 29.70in /  1005.6hPa Calm   4.0mph /  6.4km/h 76% 0.00in /  0mm 0.0 W/m2
02:08 66.4 °F /  19.1 °C 58.6 °F /  14.8 °C 29.70in /  1005.6hPa Calm   2.0mph /  3.2km/h 76% 0.00in /  0mm 0.0 W/m2
02:14 66.4 °F /  19.1 °C 59.0 °F /  15 °C 29.70in /  1005.6hPa Calm     77% 0.00in /  0mm 0.0 W/m2
02:20 66.4 °F /  19.1 °C 58.6 °F /  14.8 °C 29.70in /  1005.6hPa SW 0.9mph /  1.4km/h 4.0mph /  6.4km/h 76% 0.00in /  0mm 0.0 W/m2
02:26 66.4 °F /  19.1 °C 58.6 °F /  14.8 °C 29.70in /  1005.6hPa Calm     76% 0.00in /  0mm 0.0 W/m2
02:32 66.4 °F /  19.1 °C 58.6 °F /  14.8 °C 29.70in /  1005.6hPa Calm     76% 0.00in /  0mm 0.0 W/m2
02:38 66.4 °F /  19.1 °C 58.3 °F /  14.6 °C 29.69in /  1005.3hPa Calm   1.0mph /  1.6km/h 75% 0.00in /  0mm 0.0 W/m2
02:44 66.4 °F /  19.1 °C 57.9 °F /  14.4 °C 29.69in /  1005.3hPa WSW 0.9mph /  1.4km/h 3.0mph /  4.8km/h 74% 0.00in /  0mm 0.0 W/m2
02:50 66.4 °F /  19.1 °C 57.4 °F /  14.1 °C 29.69in /  1005.3hPa Calm   4.0mph /  6.4km/h 73% 0.00in /  0mm 0.0 W/m2
02:56 66.4 °F /  19.1 °C 57.4 °F /  14.1 °C 29.69in /  1005.3hPa Calm   1.0mph /  1.6km/h 73% 0.00in /  0mm 0.0 W/m2
03:02 66.4 °F /  19.1 °C 57.4 °F /  14.1 °C 29.68in /  1005hPa SW 5.0mph /  8km/h 5.0mph /  8km/h 73% 0.00in /  0mm 0.0 W/m2
03:08 66.4 °F /  19.1 °C 57.0 °F /  13.9 °C 29.68in /  1005hPa Calm   3.0mph /  4.8km/h 72% 0.00in /  0mm 0.0 W/m2
03:14 66.4 °F /  19.1 °C 56.3 °F /  13.5 °C 29.68in /  1005hPa Calm   4.0mph /  6.4km/h 70% 0.00in /  0mm 0.0 W/m2
03:20 66.6 °F /  19.2 °C 56.5 °F /  13.6 °C 29.67in /  1004.6hPa SW 0.9mph /  1.4km/h 2.0mph /  3.2km/h 70% 0.00in /  0mm 0.0 W/m2
03:26 66.6 °F /  19.2 °C 55.6 °F /  13.1 °C 29.67in /  1004.6hPa Calm   2.0mph /  3.2km/h 68% 0.00in /  0mm 0.0 W/m2
03:32 66.6 °F /  19.2 °C 54.9 °F /  12.7 °C 29.67in /  1004.6hPa Calm   3.0mph /  4.8km/h 66% 0.00in /  0mm 0.0 W/m2
03:39 66.7 °F /  19.3 °C 54.7 °F /  12.6 °C 29.67in /  1004.6hPa Calm   1.0mph /  1.6km/h 65% 0.00in /  0mm 0.0 W/m2
03:45 66.7 °F /  19.3 °C 54.1 °F /  12.3 °C 29.67in /  1004.6hPa South 0.9mph /  1.4km/h 1.0mph /  1.6km/h 64% 0.00in /  0mm 0.0 W/m2
03:51 66.9 °F /  19.4 °C 54.3 °F /  12.4 °C 29.67in /  1004.6hPa Calm     64% 0.00in /  0mm 0.0 W/m2
03:57 66.9 °F /  19.4 °C 55.6 °F /  13.1 °C 29.67in /  1004.6hPa Calm   3.0mph /  4.8km/h 67% 0.00in /  0mm 0.0 W/m2
04:03 66.7 °F /  19.3 °C 55.0 °F /  12.8 °C 29.67in /  1004.6hPa SW 0.9mph /  1.4km/h 1.0mph /  1.6km/h 66% 0.00in /  0mm 0.0 W/m2
04:09 66.7 °F /  19.3 °C 54.1 °F /  12.3 °C 29.67in /  1004.6hPa Calm   1.0mph /  1.6km/h 64% 0.00in /  0mm 0.0 W/m2
04:15 66.7 °F /  19.3 °C 54.1 °F /  12.3 °C 29.67in /  1004.6hPa Calm   2.0mph /  3.2km/h 64% 0.00in /  0mm 0.0 W/m2
04:21 66.7 °F /  19.3 °C 53.8 °F /  12.1 °C 29.67in /  1004.6hPa SW 2.0mph /  3.2km/h 2.0mph /  3.2km/h 63% 0.00in /  0mm 0.0 W/m2
04:27 66.7 °F /  19.3 °C 53.8 °F /  12.1 °C 29.67in /  1004.6hPa Calm   1.0mph /  1.6km/h 63% 0.00in /  0mm 0.0 W/m2
04:33 66.6 °F /  19.2 °C 54.0 °F /  12.2 °C 29.67in /  1004.6hPa Calm   1.0mph /  1.6km/h 64% 0.00in /  0mm 0.0 W/m2
04:39 66.6 °F /  19.2 °C 54.0 °F /  12.2 °C 29.67in /  1004.6hPa Calm   1.0mph /  1.6km/h 64% 0.00in /  0mm 0.0 W/m2
04:45 66.6 °F /  19.2 °C 54.5 °F /  12.5 °C 29.67in /  1004.6hPa Calm     65% 0.00in /  0mm 0.0 W/m2
04:51 66.4 °F /  19.1 °C 54.3 °F /  12.4 °C 29.67in /  1004.6hPa Calm     65% 0.00in /  0mm 0.0 W/m2
04:57 66.0 °F /  18.9 °C 54.3 °F /  12.4 °C 29.67in /  1004.6hPa Calm     66% 0.00in /  0mm 0.0 W/m2
05:03 65.8 °F /  18.8 °C 54.5 °F /  12.5 °C 29.68in /  1005hPa Calm     67% 0.00in /  0mm 0.0 W/m2
05:09 65.5 °F /  18.6 °C 54.3 °F /  12.4 °C 29.68in /  1005hPa Calm     67% 0.00in /  0mm 0.0 W/m2
05:15 65.1 °F /  18.4 °C 54.7 °F /  12.6 °C 29.68in /  1005hPa Calm     69% 0.00in /  0mm 0.0 W/m2
05:21 64.9 °F /  18.3 °C 53.8 °F /  12.1 °C 29.68in /  1005hPa Calm   1.0mph /  1.6km/h 67% 0.00in /  0mm 0.0 W/m2
05:28 64.6 °F /  18.1 °C 54.1 °F /  12.3 °C 29.68in /  1005hPa Calm     69% 0.00in /  0mm 0.0 W/m2
05:34 64.4 °F /  18 °C 53.6 °F /  12 °C 29.68in /  1005hPa Calm     68% 0.00in /  0mm 0.0 W/m2
05:40 64.2 °F /  17.9 °C 53.8 °F /  12.1 °C 29.68in /  1005hPa Calm     69% 0.00in /  0mm 0.0 W/m2
05:46 64.0 °F /  17.8 °C 53.6 °F /  12 °C 29.68in /  1005hPa Calm   1.0mph /  1.6km/h 69% 0.00in /  0mm 0.0 W/m2
05:52 63.9 °F /  17.7 °C 54.0 °F /  12.2 °C 29.68in /  1005hPa Calm   1.0mph /  1.6km/h 70% 0.00in /  0mm 0.0 W/m2
05:58 63.9 °F /  17.7 °C 53.4 °F /  11.9 °C 29.69in /  1005.3hPa Calm     69% 0.00in /  0mm 0.0 W/m2
06:04 63.9 °F /  17.7 °C 53.4 °F /  11.9 °C 29.69in /  1005.3hPa Calm     69% 0.00in /  0mm 0.0 W/m2
06:10 63.7 °F /  17.6 °C 52.5 °F /  11.4 °C 29.69in /  1005.3hPa Calm   2.0mph /  3.2km/h 67% 0.00in /  0mm 0.0 W/m2
06:19 63.7 °F /  17.6 °C 51.3 °F /  10.7 °C 29.69in /  1005.3hPa SW 0.9mph /  1.4km/h 3.0mph /  4.8km/h 64% 0.00in /  0mm 0.0 W/m2
06:25 63.7 °F /  17.6 °C 50.9 °F /  10.5 °C 29.70in /  1005.6hPa SW 0.9mph /  1.4km/h 3.0mph /  4.8km/h 63% 0.00in /  0mm 0.0 W/m2
06:31 63.7 °F /  17.6 °C 50.4 °F /  10.2 °C 29.70in /  1005.6hPa SW 0.9mph /  1.4km/h 4.0mph /  6.4km/h 62% 0.00in /  0mm 0.0 W/m2
06:37 63.9 °F /  17.7 °C 50.2 °F /  10.1 °C 29.70in /  1005.6hPa Calm     61% 0.00in /  0mm 0.0 W/m2
06:43 63.7 °F /  17.6 °C 49.5 °F /  9.7 °C 29.70in /  1005.6hPa SW 2.0mph /  3.2km/h 2.0mph /  3.2km/h 60% 0.00in /  0mm 5.0 W/m2
06:49 63.7 °F /  17.6 °C 48.6 °F /  9.2 °C 29.71in /  1006hPa Calm   2.0mph /  3.2km/h 58% 0.00in /  0mm 7.0 W/m2
06:56 63.5 °F /  17.5 °C 48.0 °F /  8.9 °C 29.71in /  1006hPa Calm     57% 0.00in /  0mm 14.0 W/m2
07:02 63.3 °F /  17.4 °C 48.4 °F /  9.1 °C 29.71in /  1006hPa Calm   1.0mph /  1.6km/h 58% 0.00in /  0mm 16.0 W/m2
07:08 63.3 °F /  17.4 °C 47.3 °F /  8.5 °C 29.71in /  1006hPa Calm   2.0mph /  3.2km/h 56% 0.00in /  0mm 19.0 W/m2
07:14 63.5 °F /  17.5 °C 47.5 °F /  8.6 °C 29.72in /  1006.3hPa Calm   2.0mph /  3.2km/h 56% 0.00in /  0mm 23.0 W/m2
07:20 63.9 °F /  17.7 °C 47.3 °F /  8.5 °C 29.72in /  1006.3hPa WSW 0.9mph /  1.4km/h 3.0mph /  4.8km/h 55% 0.00in /  0mm 21.0 W/m2
07:26 64.2 °F /  17.9 °C 48.2 °F /  9 °C 29.72in /  1006.3hPa SW 0.9mph /  1.4km/h 2.0mph /  3.2km/h 56% 0.00in /  0mm 23.0 W/m2
07:33 64.6 °F /  18.1 °C 48.6 °F /  9.2 °C 29.72in /  1006.3hPa Calm   1.0mph /  1.6km/h 56% 0.00in /  0mm 30.0 W/m2
07:39 64.8 °F /  18.2 °C 51.4 °F /  10.8 °C 29.72in /  1006.3hPa Calm   1.0mph /  1.6km/h 62% 0.00in /  0mm 30.0 W/m2
07:45 64.8 °F /  18.2 °C 51.4 °F /  10.8 °C 29.72in /  1006.3hPa Calm   1.0mph /  1.6km/h 62% 0.00in /  0mm 35.0 W/m2
07:51 64.8 °F /  18.2 °C 51.1 °F /  10.6 °C 29.72in /  1006.3hPa Calm   1.0mph /  1.6km/h 61% 0.00in /  0mm 40.0 W/m2
07:57 64.9 °F /  18.3 °C 47.5 °F /  8.6 °C 29.72in /  1006.3hPa West 0.9mph /  1.4km/h 3.0mph /  4.8km/h 53% 0.00in /  0mm 42.0 W/m2
08:03 65.5 °F /  18.6 °C 46.9 °F /  8.3 °C 29.72in /  1006.3hPa West 0.9mph /  1.4km/h 2.0mph /  3.2km/h 51% 0.00in /  0mm 47.0 W/m2
08:09 66.4 °F /  19.1 °C 45.5 °F /  7.5 °C 29.73in /  1006.7hPa SW 2.9mph /  4.7km/h 7.0mph /  11.3km/h 47% 0.00in /  0mm 70.0 W/m2
08:15 67.3 °F /  19.6 °C 45.9 °F /  7.7 °C 29.73in /  1006.7hPa WSW 0.9mph /  1.4km/h 7.0mph /  11.3km/h 46% 0.00in /  0mm 360.0 W/m2
08:22 68.2 °F /  20.1 °C 46.0 °F /  7.8 °C 29.73in /  1006.7hPa SSW 2.0mph /  3.2km/h 8.0mph /  12.9km/h 45% 0.00in /  0mm 383.0 W/m2
08:28 68.5 °F /  20.3 °C 45.7 °F /  7.6 °C 29.73in /  1006.7hPa South 4.9mph /  7.9km/h 7.0mph /  11.3km/h 44% 0.00in /  0mm 411.0 W/m2
08:34 69.1 °F /  20.6 °C 45.7 °F /  7.6 °C 29.72in /  1006.3hPa SSW 0.9mph /  1.4km/h 7.0mph /  11.3km/h 43% 0.00in /  0mm 441.0 W/m2
08:40 69.6 °F /  20.9 °C 47.3 °F /  8.5 °C 29.73in /  1006.7hPa Calm   5.0mph /  8km/h 45% 0.00in /  0mm 462.0 W/m2
08:46 70.2 °F /  21.2 °C 48.4 °F /  9.1 °C 29.73in /  1006.7hPa ESE 2.0mph /  3.2km/h 6.0mph /  9.7km/h 46% 0.00in /  0mm 489.0 W/m2
08:52 70.3 °F /  21.3 °C 48.6 °F /  9.2 °C 29.73in /  1006.7hPa Calm   4.0mph /  6.4km/h 46% 0.00in /  0mm 114.0 W/m2
08:58 70.5 °F /  21.4 °C 49.3 °F /  9.6 °C 29.73in /  1006.7hPa WSW 0.9mph /  1.4km/h 5.0mph /  8km/h 47% 0.00in /  0mm 559.0 W/m2
09:04 71.1 °F /  21.7 °C 50.4 °F /  10.2 °C 29.73in /  1006.7hPa Calm   8.0mph /  12.9km/h 48% 0.00in /  0mm 601.0 W/m2
09:11 71.8 °F /  22.1 °C 51.1 °F /  10.6 °C 29.73in /  1006.7hPa SW 2.9mph /  4.7km/h 5.0mph /  8km/h 48% 0.00in /  0mm 629.0 W/m2
09:17 72.1 °F /  22.3 °C 51.4 °F /  10.8 °C 29.73in /  1006.7hPa East 2.9mph /  4.7km/h 7.0mph /  11.3km/h 48% 0.00in /  0mm 615.0 W/m2
09:23 72.7 °F /  22.6 °C 51.8 °F /  11 °C 29.73in /  1006.7hPa Calm   1.0mph /  1.6km/h 48% 0.00in /  0mm 626.0 W/m2
09:29 73.0 °F /  22.8 °C 51.6 °F /  10.9 °C 29.73in /  1006.7hPa South 0.9mph /  1.4km/h 3.0mph /  4.8km/h 47% 0.00in /  0mm 642.0 W/m2
09:35 73.6 °F /  23.1 °C 52.2 °F /  11.2 °C 29.73in /  1006.7hPa Calm   4.0mph /  6.4km/h 47% 0.00in /  0mm 663.0 W/m2
09:41 73.8 °F /  23.2 °C 52.9 °F /  11.6 °C 29.72in /  1006.3hPa SSW 2.9mph /  4.7km/h 5.0mph /  8km/h 48% 0.00in /  0mm 682.0 W/m2
09:47 73.9 °F /  23.3 °C 53.1 °F /  11.7 °C 29.72in /  1006.3hPa WSW 2.9mph /  4.7km/h 4.0mph /  6.4km/h 48% 0.00in /  0mm 705.0 W/m2
09:54 73.9 °F /  23.3 °C 53.1 °F /  11.7 °C 29.72in /  1006.3hPa WSW 2.0mph /  3.2km/h 4.0mph /  6.4km/h 48% 0.00in /  0mm 724.0 W/m2
10:00 74.7 °F /  23.7 °C 53.6 °F /  12 °C 29.72in /  1006.3hPa Calm   3.0mph /  4.8km/h 48% 0.00in /  0mm 744.0 W/m2
10:06 74.8 °F /  23.8 °C 53.2 °F /  11.8 °C 29.72in /  1006.3hPa SW 2.0mph /  3.2km/h 10.0mph /  16.1km/h 47% 0.00in /  0mm 763.0 W/m2
10:12 74.8 °F /  23.8 °C 53.2 °F /  11.8 °C 29.72in /  1006.3hPa SSW 4.0mph /  6.4km/h 8.0mph /  12.9km/h 47% 0.00in /  0mm 784.0 W/m2
10:18 75.2 °F /  24 °C 53.1 °F /  11.7 °C 29.72in /  1006.3hPa South 2.9mph /  4.7km/h 4.0mph /  6.4km/h 46% 0.00in /  0mm 800.0 W/m2
10:24 75.6 °F /  24.2 °C 53.2 °F /  11.8 °C 29.72in /  1006.3hPa SSE 4.9mph /  7.9km/h 8.0mph /  12.9km/h 46% 0.00in /  0mm 821.0 W/m2
10:30 75.9 °F /  24.4 °C 53.6 °F /  12 °C 29.71in /  1006hPa SE 0.9mph /  1.4km/h 8.0mph /  12.9km/h 46% 0.00in /  0mm 840.0 W/m2
10:36 76.3 °F /  24.6 °C 53.4 °F /  11.9 °C 29.71in /  1006hPa SW 4.0mph /  6.4km/h 8.0mph /  12.9km/h 45% 0.00in /  0mm 858.0 W/m2
10:42 76.3 °F /  24.6 °C 54.0 °F /  12.2 °C 29.71in /  1006hPa WSW 4.0mph /  6.4km/h 8.0mph /  12.9km/h 46% 0.00in /  0mm 872.0 W/m2
10:49 76.5 °F /  24.7 °C 54.1 °F /  12.3 °C 29.71in /  1006hPa SSE 2.9mph /  4.7km/h 7.0mph /  11.3km/h 46% 0.00in /  0mm 888.0 W/m2
10:55 76.8 °F /  24.9 °C 52.7 °F /  11.5 °C 29.71in /  1006hPa WSW 2.0mph /  3.2km/h 3.0mph /  4.8km/h 43% 0.00in /  0mm 907.0 W/m2
11:01 77.2 °F /  25.1 °C 52.9 °F /  11.6 °C 29.71in /  1006hPa SW 0.9mph /  1.4km/h 4.0mph /  6.4km/h 43% 0.00in /  0mm 919.0 W/m2
11:07 77.5 °F /  25.3 °C 53.2 °F /  11.8 °C 29.71in /  1006hPa SW 0.9mph /  1.4km/h 6.0mph /  9.7km/h 43% 0.00in /  0mm 940.0 W/m2
11:13 77.4 °F /  25.2 °C 52.5 °F /  11.4 °C 29.70in /  1005.6hPa South 4.9mph /  7.9km/h 8.0mph /  12.9km/h 42% 0.00in /  0mm 949.0 W/m2
11:19 78.1 °F /  25.6 °C 53.1 °F /  11.7 °C 29.70in /  1005.6hPa SSW 0.9mph /  1.4km/h 8.0mph /  12.9km/h 42% 0.00in /  0mm 965.0 W/m2
11:25 78.1 °F /  25.6 °C 52.5 °F /  11.4 °C 29.70in /  1005.6hPa SSW 4.9mph /  7.9km/h 6.0mph /  9.7km/h 41% 0.00in /  0mm 965.0 W/m2
11:31 78.4 °F /  25.8 °C 52.7 °F /  11.5 °C 29.70in /  1005.6hPa SSW 0.9mph /  1.4km/h 4.0mph /  6.4km/h 41% 0.00in /  0mm 990.0 W/m2
11:38 78.8 °F /  26 °C 51.8 °F /  11 °C 29.69in /  1005.3hPa East 2.0mph /  3.2km/h 4.0mph /  6.4km/h 39% 0.00in /  0mm 1000.0 W/m2
11:44 79.2 °F /  26.2 °C 52.7 °F /  11.5 °C 29.69in /  1005.3hPa South 4.0mph /  6.4km/h 8.0mph /  12.9km/h 40% 0.00in /  0mm 1018.0 W/m2
11:50 79.5 °F /  26.4 °C 50.2 °F /  10.1 °C 29.69in /  1005.3hPa South 2.9mph /  4.7km/h 7.0mph /  11.3km/h 36% 0.00in /  0mm 1034.0 W/m2
11:56 79.5 °F /  26.4 °C 52.3 °F /  11.3 °C 29.68in /  1005hPa West 0.9mph /  1.4km/h 2.0mph /  3.2km/h 39% 0.00in /  0mm 1081.0 W/m2
12:02 80.1 °F /  26.7 °C 50.0 °F /  10 °C 29.68in /  1005hPa South 6.9mph /  11.1km/h 8.0mph /  12.9km/h 35% 0.00in /  0mm 1056.0 W/m2
12:25 80.8 °F /  27.1 °C 52.9 °F /  11.6 °C 29.67in /  1004.6hPa SW 2.9mph /  4.7km/h 7.0mph /  11.3km/h 38% 0.00in /  0mm 919.0 W/m2
12:33 81.0 °F /  27.2 °C 52.2 °F /  11.2 °C 29.67in /  1004.6hPa SSW 4.0mph /  6.4km/h 4.0mph /  6.4km/h 37% 0.00in /  0mm 742.0 W/m2
12:39 81.7 °F /  27.6 °C 52.9 °F /  11.6 °C 29.67in /  1004.6hPa SW 4.9mph /  7.9km/h 6.0mph /  9.7km/h 37% 0.00in /  0mm 1348.0 W/m2
12:45 82.4 °F /  28 °C 53.6 °F /  12 °C 29.67in /  1004.6hPa SE 4.9mph /  7.9km/h 8.0mph /  12.9km/h 37% 0.00in /  0mm 329.0 W/m2
12:51 82.9 °F /  28.3 °C 53.2 °F /  11.8 °C 29.66in /  1004.3hPa South 0.9mph /  1.4km/h 6.0mph /  9.7km/h 36% 0.00in /  0mm 492.0 W/m2
12:59 83.7 °F /  28.7 °C 53.1 °F /  11.7 °C 29.66in /  1004.3hPa West 2.0mph /  3.2km/h 3.0mph /  4.8km/h 35% 0.00in /  0mm 1368.0 W/m2
13:05 84.0 °F /  28.9 °C 54.1 °F /  12.3 °C 29.66in /  1004.3hPa ESE 0.9mph /  1.4km/h 6.0mph /  9.7km/h 36% 0.00in /  0mm 545.0 W/m2
13:12 84.4 °F /  29.1 °C 52.9 °F /  11.6 °C 29.65in /  1003.9hPa Calm   7.0mph /  11.3km/h 34% 0.00in /  0mm 1324.0 W/m2
13:18 84.0 °F /  28.9 °C 53.4 °F /  11.9 °C 29.65in /  1003.9hPa SE 4.0mph /  6.4km/h 5.0mph /  8km/h 35% 0.00in /  0mm 443.0 W/m2
13:24 83.8 °F /  28.8 °C 52.5 °F /  11.4 °C 29.65in /  1003.9hPa SE 2.9mph /  4.7km/h 5.0mph /  8km/h 34% 0.00in /  0mm 512.0 W/m2
13:32 84.6 °F /  29.2 °C 54.7 °F /  12.6 °C 29.65in /  1003.9hPa WNW 0.9mph /  1.4km/h 5.0mph /  8km/h 36% 0.00in /  0mm 1285.0 W/m2
13:38 84.0 °F /  28.9 °C 54.9 °F /  12.7 °C 29.65in /  1003.9hPa SSW 4.0mph /  6.4km/h 7.0mph /  11.3km/h 37% 0.00in /  0mm 561.0 W/m2
13:44 83.7 °F /  28.7 °C 54.7 °F /  12.6 °C 29.65in /  1003.9hPa WSW 6.9mph /  11.1km/h 7.0mph /  11.3km/h 37% 0.00in /  0mm 272.0 W/m2
13:51 82.9 °F /  28.3 °C 54.7 °F /  12.6 °C 29.65in /  1003.9hPa SW 0.9mph /  1.4km/h 4.0mph /  6.4km/h 38% 0.00in /  0mm 563.0 W/m2
13:57 82.8 °F /  28.2 °C 53.8 °F /  12.1 °C 29.64in /  1003.6hPa Calm   2.0mph /  3.2km/h 37% 0.00in /  0mm 341.0 W/m2
14:03 82.8 °F /  28.2 °C 54.5 °F /  12.5 °C 29.64in /  1003.6hPa WSW 4.0mph /  6.4km/h 6.0mph /  9.7km/h 38% 0.00in /  0mm 420.0 W/m2
14:09 83.1 °F /  28.4 °C 53.4 °F /  11.9 °C 29.64in /  1003.6hPa West 2.0mph /  3.2km/h 5.0mph /  8km/h 36% 0.00in /  0mm 1204.0 W/m2
14:15 83.1 °F /  28.4 °C 54.9 °F /  12.7 °C 29.64in /  1003.6hPa Calm   3.0mph /  4.8km/h 38% 0.00in /  0mm 320.0 W/m2
14:21 82.9 °F /  28.3 °C 54.0 °F /  12.2 °C 29.63in /  1003.3hPa WSW 0.9mph /  1.4km/h 4.0mph /  6.4km/h 37% 0.00in /  0mm 448.0 W/m2
14:27 83.1 °F /  28.4 °C 54.1 °F /  12.3 °C 29.63in /  1003.3hPa SSE 0.9mph /  1.4km/h 3.0mph /  4.8km/h 37% 0.00in /  0mm 1190.0 W/m2
14:34 84.0 °F /  28.9 °C 54.1 °F /  12.3 °C 29.63in /  1003.3hPa South 4.0mph /  6.4km/h 7.0mph /  11.3km/h 36% 0.00in /  0mm 1151.0 W/m2
14:40 84.4 °F /  29.1 °C 54.5 °F /  12.5 °C 29.62in /  1002.9hPa West 6.9mph /  11.1km/h 7.0mph /  11.3km/h 36% 0.00in /  0mm 473.0 W/m2
14:46 84.7 °F /  29.3 °C 54.1 °F /  12.3 °C 29.62in /  1002.9hPa West 0.9mph /  1.4km/h 5.0mph /  8km/h 35% 0.00in /  0mm 1148.0 W/m2
14:53 85.5 °F /  29.7 °C 54.0 °F /  12.2 °C 29.62in /  1002.9hPa SW 0.9mph /  1.4km/h 6.0mph /  9.7km/h 34% 0.00in /  0mm 998.0 W/m2
14:58 85.3 °F /  29.6 °C 53.8 °F /  12.1 °C 29.62in /  1002.9hPa WSW 2.0mph /  3.2km/h 6.0mph /  9.7km/h 34% 0.00in /  0mm 376.0 W/m2
15:04 84.4 °F /  29.1 °C 55.2 °F /  12.9 °C 29.62in /  1002.9hPa WNW 2.0mph /  3.2km/h 8.0mph /  12.9km/h 37% 0.00in /  0mm 323.0 W/m2
15:11 84.4 °F /  29.1 °C 55.9 °F /  13.3 °C 29.62in /  1002.9hPa WNW 0.9mph /  1.4km/h 9.0mph /  14.5km/h 38% 0.00in /  0mm 288.0 W/m2
15:17 83.8 °F /  28.8 °C 54.0 °F /  12.2 °C 29.62in /  1002.9hPa SW 2.9mph /  4.7km/h 8.0mph /  12.9km/h 36% 0.00in /  0mm 299.0 W/m2
15:23 84.0 °F /  28.9 °C 54.9 °F /  12.7 °C 29.61in /  1002.6hPa Calm   7.0mph /  11.3km/h 37% 0.00in /  0mm 330.0 W/m2
15:29 84.4 °F /  29.1 °C 53.8 °F /  12.1 °C 29.61in /  1002.6hPa Calm   6.0mph /  9.7km/h 35% 0.00in /  0mm 1067.0 W/m2
15:35 85.6 °F /  29.8 °C 54.0 °F /  12.2 °C 29.60in /  1002.3hPa WNW 2.9mph /  4.7km/h 9.0mph /  14.5km/h 34% 0.00in /  0mm 1004.0 W/m2
15:41 86.4 °F /  30.2 °C 53.8 °F /  12.1 °C 29.60in /  1002.3hPa North 0.9mph /  1.4km/h 7.0mph /  11.3km/h 33% 0.00in /  0mm 239.0 W/m2
15:47 85.8 °F /  29.9 °C 52.5 °F /  11.4 °C 29.60in /  1002.3hPa WNW 4.0mph /  6.4km/h 8.0mph /  12.9km/h 32% 0.00in /  0mm 211.0 W/m2
15:53 84.6 °F /  29.2 °C 52.3 °F /  11.3 °C 29.60in /  1002.3hPa Calm   4.0mph /  6.4km/h 33% 0.00in /  0mm 218.0 W/m2
16:00 83.8 °F /  28.8 °C 50.9 °F /  10.5 °C 29.60in /  1002.3hPa WSW 2.9mph /  4.7km/h 7.0mph /  11.3km/h 32% 0.00in /  0mm 281.0 W/m2
16:06 83.5 °F /  28.6 °C 51.4 °F /  10.8 °C 29.59in /  1001.9hPa West 0.9mph /  1.4km/h 6.0mph /  9.7km/h 33% 0.00in /  0mm 309.0 W/m2
16:12 83.5 °F /  28.6 °C 52.2 °F /  11.2 °C 29.59in /  1001.9hPa West 4.0mph /  6.4km/h 6.0mph /  9.7km/h 34% 0.00in /  0mm 299.0 W/m2
16:18 83.7 °F /  28.7 °C 51.4 °F /  10.8 °C 29.59in /  1001.9hPa SW 2.0mph /  3.2km/h 7.0mph /  11.3km/h 33% 0.00in /  0mm 325.0 W/m2
16:24 83.7 °F /  28.7 °C 50.7 °F /  10.4 °C 29.59in /  1001.9hPa WSW 0.9mph /  1.4km/h 1.0mph /  1.6km/h 32% 0.00in /  0mm 336.0 W/m2
16:30 84.4 °F /  29.1 °C 50.4 °F /  10.2 °C 29.59in /  1001.9hPa WSW 4.9mph /  7.9km/h 10.0mph /  16.1km/h 31% 0.00in /  0mm 889.0 W/m2
16:36 84.7 °F /  29.3 °C 49.8 °F /  9.9 °C 29.59in /  1001.9hPa WSW 4.0mph /  6.4km/h 8.0mph /  12.9km/h 30% 0.00in /  0mm 239.0 W/m2
16:42 84.2 °F /  29 °C 49.5 °F /  9.7 °C 29.59in /  1001.9hPa Calm   4.0mph /  6.4km/h 30% 0.00in /  0mm 211.0 W/m2
16:48 83.8 °F /  28.8 °C 49.1 °F /  9.5 °C 29.59in /  1001.9hPa West 8.1mph /  13km/h 8.1mph /  13km/h 30% 0.00in /  0mm 260.0 W/m2
16:54 84.0 °F /  28.9 °C 50.2 °F /  10.1 °C 29.59in /  1001.9hPa NNW 8.1mph /  13km/h 8.1mph /  13km/h 31% 0.00in /  0mm 759.0 W/m2
17:00 85.5 °F /  29.7 °C 48.6 °F /  9.2 °C 29.59in /  1001.9hPa SW 6.9mph /  11.1km/h 11.0mph /  17.7km/h 28% 0.00in /  0mm 677.0 W/m2
17:06 86.2 °F /  30.1 °C 48.2 °F /  9 °C 29.59in /  1001.9hPa NW 0.9mph /  1.4km/h 2.0mph /  3.2km/h 27% 0.00in /  0mm 680.0 W/m2
17:13 86.9 °F /  30.5 °C 46.8 °F /  8.2 °C 29.59in /  1001.9hPa WNW 2.9mph /  4.7km/h 10.0mph /  16.1km/h 25% 0.00in /  0mm 654.0 W/m2
17:19 86.7 °F /  30.4 °C 47.7 °F /  8.7 °C 29.58in /  1001.6hPa WNW 2.0mph /  3.2km/h 8.0mph /  12.9km/h 26% 0.00in /  0mm 559.0 W/m2
17:25 87.1 °F /  30.6 °C 48.0 °F /  8.9 °C 29.58in /  1001.6hPa West 4.9mph /  7.9km/h 5.0mph /  8km/h 26% 0.00in /  0mm 547.0 W/m2
17:31 87.1 °F /  30.6 °C 46.9 °F /  8.3 °C 29.58in /  1001.6hPa SSW 6.0mph /  9.7km/h 9.0mph /  14.5km/h 25% 0.00in /  0mm 519.0 W/m2
17:37 86.5 °F /  30.3 °C 46.6 °F /  8.1 °C 29.58in /  1001.6hPa SSW 2.0mph /  3.2km/h 10.0mph /  16.1km/h 25% 0.00in /  0mm 269.0 W/m2
17:43 85.3 °F /  29.6 °C 45.5 °F /  7.5 °C 29.58in /  1001.6hPa WSW 0.9mph /  1.4km/h 5.0mph /  8km/h 25% 0.00in /  0mm 167.0 W/m2
17:49 84.6 °F /  29.2 °C 45.9 °F /  7.7 °C 29.58in /  1001.6hPa SW 2.0mph /  3.2km/h 7.0mph /  11.3km/h 26% 0.00in /  0mm 248.0 W/m2
17:55 84.2 °F /  29 °C 45.7 °F /  7.6 °C 29.58in /  1001.6hPa WSW 4.0mph /  6.4km/h 5.0mph /  8km/h 26% 0.00in /  0mm 141.0 W/m2
18:01 84.2 °F /  29 °C 45.7 °F /  7.6 °C 29.59in /  1001.9hPa WSW 2.0mph /  3.2km/h 5.0mph /  8km/h 26% 0.00in /  0mm 406.0 W/m2
18:08 84.9 °F /  29.4 °C 45.1 °F /  7.3 °C 29.59in /  1001.9hPa WSW 2.9mph /  4.7km/h 6.0mph /  9.7km/h 25% 0.00in /  0mm 399.0 W/m2
18:14 84.9 °F /  29.4 °C 43.0 °F /  6.1 °C 29.59in /  1001.9hPa WSW 8.1mph /  13km/h 13.0mph /  20.9km/h 23% 0.00in /  0mm 315.0 W/m2
18:20 84.4 °F /  29.1 °C 43.7 °F /  6.5 °C 29.59in /  1001.9hPa SW 4.0mph /  6.4km/h 15.0mph /  24.1km/h 24% 0.00in /  0mm 265.0 W/m2
18:26 83.8 °F /  28.8 °C 43.2 °F /  6.2 °C 29.59in /  1001.9hPa West 4.9mph /  7.9km/h 9.0mph /  14.5km/h 24% 0.00in /  0mm 255.0 W/m2
18:32 83.5 °F /  28.6 °C 43.0 °F /  6.1 °C 29.59in /  1001.9hPa SW 2.9mph /  4.7km/h 8.0mph /  12.9km/h 24% 0.00in /  0mm 250.0 W/m2
18:38 83.1 °F /  28.4 °C 42.6 °F /  5.9 °C 29.59in /  1001.9hPa WSW 6.9mph /  11.1km/h 11.0mph /  17.7km/h 24% 0.00in /  0mm 207.0 W/m2
18:44 82.6 °F /  28.1 °C 42.1 °F /  5.6 °C 29.60in /  1002.3hPa WSW 2.0mph /  3.2km/h 7.0mph /  11.3km/h 24% 0.00in /  0mm 163.0 W/m2
18:51 81.9 °F /  27.7 °C 41.5 °F /  5.3 °C 29.60in /  1002.3hPa WSW 4.0mph /  6.4km/h 13.0mph /  20.9km/h 24% 0.00in /  0mm 125.0 W/m2
18:57 81.5 °F /  27.5 °C 42.3 °F /  5.7 °C 29.60in /  1002.3hPa West 6.9mph /  11.1km/h 14.0mph /  22.5km/h 25% 0.00in /  0mm 56.0 W/m2
19:03 80.8 °F /  27.1 °C 42.6 °F /  5.9 °C 29.61in /  1002.6hPa North 2.9mph /  4.7km/h 12.0mph /  19.3km/h 26% 0.00in /  0mm 40.0 W/m2
19:09 80.1 °F /  26.7 °C 42.1 °F /  5.6 °C 29.61in /  1002.6hPa WSW 4.0mph /  6.4km/h 12.0mph /  19.3km/h 26% 0.00in /  0mm 30.0 W/m2
19:15 79.2 °F /  26.2 °C 42.3 °F /  5.7 °C 29.61in /  1002.6hPa West 6.0mph /  9.7km/h 11.0mph /  17.7km/h 27% 0.00in /  0mm 19.0 W/m2
19:21 78.3 °F /  25.7 °C 42.4 °F /  5.8 °C 29.62in /  1002.9hPa SW 6.0mph /  9.7km/h 7.0mph /  11.3km/h 28% 0.00in /  0mm 12.0 W/m2
19:27 77.7 °F /  25.4 °C 43.0 °F /  6.1 °C 29.62in /  1002.9hPa SW 0.9mph /  1.4km/h 7.0mph /  11.3km/h 29% 0.00in /  0mm 9.0 W/m2
19:33 77.0 °F /  25 °C 42.3 °F /  5.7 °C 29.62in /  1002.9hPa SW 6.9mph /  11.1km/h 14.0mph /  22.5km/h 29% 0.00in /  0mm 5.0 W/m2
19:40 76.5 °F /  24.7 °C 42.8 °F /  6 °C 29.63in /  1003.3hPa West 11.0mph /  17.7km/h 11.0mph /  17.7km/h 30% 0.00in /  0mm 0.0 W/m2
19:46 75.9 °F /  24.4 °C 43.2 °F /  6.2 °C 29.62in /  1002.9hPa SW 4.9mph /  7.9km/h 5.0mph /  8km/h 31% 0.00in /  0mm 0.0 W/m2
19:52 75.6 °F /  24.2 °C 43.7 °F /  6.5 °C 29.63in /  1003.3hPa West 12.1mph /  19.5km/h 12.1mph /  19.5km/h 32% 0.00in /  0mm 0.0 W/m2
19:58 75.0 °F /  23.9 °C 43.2 °F /  6.2 °C 29.64in /  1003.6hPa WSW 2.0mph /  3.2km/h 8.0mph /  12.9km/h 32% 0.00in /  0mm 0.0 W/m2
20:04 74.7 °F /  23.7 °C 43.7 °F /  6.5 °C 29.64in /  1003.6hPa South 8.1mph /  13km/h 11.0mph /  17.7km/h 33% 0.00in /  0mm 0.0 W/m2
20:10 74.1 °F /  23.4 °C 43.2 °F /  6.2 °C 29.65in /  1003.9hPa NW 2.9mph /  4.7km/h 5.0mph /  8km/h 33% 0.00in /  0mm 0.0 W/m2
20:16 73.8 °F /  23.2 °C 43.7 °F /  6.5 °C 29.65in /  1003.9hPa SE 0.9mph /  1.4km/h 7.0mph /  11.3km/h 34% 0.00in /  0mm 0.0 W/m2
20:22 73.6 °F /  23.1 °C 43.5 °F /  6.4 °C 29.65in /  1003.9hPa Calm   5.0mph /  8km/h 34% 0.00in /  0mm 0.0 W/m2
20:28 73.2 °F /  22.9 °C 43.2 °F /  6.2 °C 29.66in /  1004.3hPa Calm   8.0mph /  12.9km/h 34% 0.00in /  0mm 0.0 W/m2
20:35 73.0 °F /  22.8 °C 43.7 °F /  6.5 °C 29.66in /  1004.3hPa West 0.9mph /  1.4km/h 5.0mph /  8km/h 35% 0.00in /  0mm 0.0 W/m2
20:41 72.7 °F /  22.6 °C 43.5 °F /  6.4 °C 29.66in /  1004.3hPa WSW 0.9mph /  1.4km/h 5.0mph /  8km/h 35% 0.00in /  0mm 0.0 W/m2
20:47 72.1 °F /  22.3 °C 43.7 °F /  6.5 °C 29.67in /  1004.6hPa WSW 0.9mph /  1.4km/h 4.0mph /  6.4km/h 36% 0.00in /  0mm 0.0 W/m2
20:53 72.0 °F /  22.2 °C 44.2 °F /  6.8 °C 29.67in /  1004.6hPa West 0.9mph /  1.4km/h 5.0mph /  8km/h 37% 0.00in /  0mm 0.0 W/m2
21:00 71.6 °F /  22 °C 43.9 °F /  6.6 °C 29.67in /  1004.6hPa WSW 2.0mph /  3.2km/h 8.0mph /  12.9km/h 37% 0.00in /  0mm 0.0 W/m2
21:05 71.2 °F /  21.8 °C 44.2 °F /  6.8 °C 29.67in /  1004.6hPa West 4.0mph /  6.4km/h 6.0mph /  9.7km/h 38% 0.00in /  0mm 0.0 W/m2
21:11 70.9 °F /  21.6 °C 44.1 °F /  6.7 °C 29.67in /  1004.6hPa West 0.9mph /  1.4km/h 7.0mph /  11.3km/h 38% 0.00in /  0mm 0.0 W/m2
21:18 70.5 °F /  21.4 °C 43.7 °F /  6.5 °C 29.67in /  1004.6hPa West 2.9mph /  4.7km/h 10.0mph /  16.1km/h 38% 0.00in /  0mm 0.0 W/m2
21:24 70.3 °F /  21.3 °C 44.2 °F /  6.8 °C 29.67in /  1004.6hPa WSW 10.1mph /  16.3km/h 11.0mph /  17.7km/h 39% 0.00in /  0mm 0.0 W/m2
21:30 70.0 °F /  21.1 °C 43.9 °F /  6.6 °C 29.67in /  1004.6hPa SW 4.0mph /  6.4km/h 12.0mph /  19.3km/h 39% 0.00in /  0mm 0.0 W/m2
21:36 69.6 °F /  20.9 °C 44.2 °F /  6.8 °C 29.67in /  1004.6hPa West 4.9mph /  7.9km/h 5.0mph /  8km/h 40% 0.00in /  0mm 0.0 W/m2
21:42 69.4 °F /  20.8 °C 43.3 °F /  6.3 °C 29.67in /  1004.6hPa West 0.9mph /  1.4km/h 10.0mph /  16.1km/h 39% 0.00in /  0mm 0.0 W/m2
21:48 69.3 °F /  20.7 °C 43.2 °F /  6.2 °C 29.67in /  1004.6hPa WSW 4.0mph /  6.4km/h 7.0mph /  11.3km/h 39% 0.00in /  0mm 0.0 W/m2
21:54 69.1 °F /  20.6 °C 43.2 °F /  6.2 °C 29.67in /  1004.6hPa WSW 2.9mph /  4.7km/h 7.0mph /  11.3km/h 39% 0.00in /  0mm 0.0 W/m2
22:00 68.9 °F /  20.5 °C 43.0 °F /  6.1 °C 29.68in /  1005hPa Calm   9.0mph /  14.5km/h 39% 0.00in /  0mm 0.0 W/m2
22:06 68.7 °F /  20.4 °C 42.8 °F /  6 °C 29.68in /  1005hPa WNW 2.0mph /  3.2km/h 5.0mph /  8km/h 39% 0.00in /  0mm 0.0 W/m2
22:12 68.5 °F /  20.3 °C 42.6 °F /  5.9 °C 29.68in /  1005hPa WNW 0.9mph /  1.4km/h 4.0mph /  6.4km/h 39% 0.00in /  0mm 0.0 W/m2
22:18 68.4 °F /  20.2 °C 41.7 °F /  5.4 °C 29.68in /  1005hPa WSW 4.0mph /  6.4km/h 5.0mph /  8km/h 38% 0.00in /  0mm 0.0 W/m2
22:25 68.4 °F /  20.2 °C 41.7 °F /  5.4 °C 29.69in /  1005.3hPa West 2.9mph /  4.7km/h 6.0mph /  9.7km/h 38% 0.00in /  0mm 0.0 W/m2
22:31 68.2 °F /  20.1 °C 41.5 °F /  5.3 °C 29.69in /  1005.3hPa WSW 2.9mph /  4.7km/h 9.0mph /  14.5km/h 38% 0.00in /  0mm 0.0 W/m2
22:37 68.2 °F /  20.1 °C 41.5 °F /  5.3 °C 29.69in /  1005.3hPa West 2.0mph /  3.2km/h 5.0mph /  8km/h 38% 0.00in /  0mm 0.0 W/m2
22:43 67.8 °F /  19.9 °C 41.4 °F /  5.2 °C 29.69in /  1005.3hPa West 0.9mph /  1.4km/h 6.0mph /  9.7km/h 38% 0.00in /  0mm 0.0 W/m2
22:49 67.6 °F /  19.8 °C 41.2 °F /  5.1 °C 29.69in /  1005.3hPa Calm   4.0mph /  6.4km/h 38% 0.00in /  0mm 0.0 W/m2
22:55 67.5 °F /  19.7 °C 39.6 °F /  4.2 °C 29.69in /  1005.3hPa WSW 6.9mph /  11.1km/h 7.0mph /  11.3km/h 36% 0.00in /  0mm 0.0 W/m2
23:01 67.5 °F /  19.7 °C 37.4 °F /  3 °C 29.70in /  1005.6hPa Calm   2.0mph /  3.2km/h 33% 0.00in /  0mm 0.0 W/m2
23:08 67.3 °F /  19.6 °C 36.5 °F /  2.5 °C 29.70in /  1005.6hPa North 0.9mph /  1.4km/h 3.0mph /  4.8km/h 32% 0.00in /  0mm 0.0 W/m2
23:14 67.3 °F /  19.6 °C 34.7 °F /  1.5 °C 29.70in /  1005.6hPa West 2.0mph /  3.2km/h 7.0mph /  11.3km/h 30% 0.00in /  0mm 0.0 W/m2
23:20 67.3 °F /  19.6 °C 34.7 °F /  1.5 °C 29.70in /  1005.6hPa Calm   6.0mph /  9.7km/h 30% 0.00in /  0mm 0.0 W/m2
23:26 67.3 °F /  19.6 °C 36.5 °F /  2.5 °C 29.70in /  1005.6hPa Calm   2.0mph /  3.2km/h 32% 0.00in /  0mm 0.0 W/m2
23:32 66.9 °F /  19.4 °C 36.1 °F /  2.3 °C 29.70in /  1005.6hPa Calm   1.0mph /  1.6km/h 32% 0.00in /  0mm 0.0 W/m2
23:38 66.7 °F /  19.3 °C 36.0 °F /  2.2 °C 29.70in /  1005.6hPa Calm   2.0mph /  3.2km/h 32% 0.00in /  0mm 0.0 W/m2
23:45 66.6 °F /  19.2 °C 36.5 °F /  2.5 °C 29.70in /  1005.6hPa Calm   2.0mph /  3.2km/h 33% 0.00in /  0mm 0.0 W/m2
23:51 66.6 °F /  19.2 °C 37.4 °F /  3 °C 29.70in /  1005.6hPa Calm   1.0mph /  1.6km/h 34% 0.00in /  0mm 0.0 W/m2
23:57 66.2 °F /  19 °C 37.8 °F /  3.2 °C 29.70in /  1005.6hPa Calm   2.0mph /  3.2km/h 35% 0.00in /  0mm 0.0 W/m2
Olympia, Windhoek, Namibia
Compliments of Weather Underground - 3 mb